
Distance (Route):
Temperature : -28.6°C
Humidity : 10.3%
Pressure : 0hPa| Receiver | Frames | First received | Last received |
|---|---|---|---|
| OM5KV | 149 | 2026-09-05 06:08:12 | 2026-09-05 06:34:18 |
| LZ4TU-5 | 122 | 2026-09-05 05:31:22 | 2026-09-05 06:54:55 |
| GYPAP8-17 | 30 | 2026-09-05 06:12:20 | 2026-09-05 06:40:14 |
| 9A1FER-3 | 23 | 2026-09-05 06:13:04 | 2026-09-05 06:44:59 |
| PETON7-10 | 18 | 2026-09-05 06:40:29 | 2026-09-05 06:45:15 |
| OE3JTB-15 | 6 | 2026-09-05 06:16:44 | 2026-09-05 06:27:14 |
| Receiver | Date | Latitude | Longitude | Direction | Speed | Altitude | Climb | Temperature | Humidity | Pressure | Voltage | Killtimer | Uptime | BKT | XDATA |
|---|---|---|---|---|---|---|---|---|---|---|---|---|---|---|---|
| LZ4TU-5 | 2026-09-05 06:54:55 | 44.68903 | 20.97451 | 110° | 55km/h | 8924m | -19.5m/s | -28.6°C | 10.3% | 0hPa | 5.5V | 00:00:00 | 00:00:00 | 00:00:00 | |
| LZ4TU-5 | 2026-09-05 06:54:50 | 44.68925 | 20.97358 | 108° | 55km/h | 9025m | -19.3m/s | -29.5°C | 10.7% | 0hPa | 5.5V | 00:00:00 | 00:00:00 | 00:00:00 | |
| LZ4TU-5 | 2026-09-05 06:53:29 | 44.69312 | 20.95842 | 110° | 58km/h | 10684m | -21.9m/s | -43.3°C | 23.5% | 0hPa | 5.5V | 00:00:00 | 00:00:00 | 00:00:00 | |
| LZ4TU-5 | 2026-09-05 06:53:25 | 44.69329 | 20.95765 | 107° | 57km/h | 10775m | -21.8m/s | -44.0°C | 24.0% | 0hPa | 5.5V | 00:00:00 | 00:00:00 | 00:00:00 | |
| LZ4TU-5 | 2026-09-05 06:52:04 | 44.69483 | 20.94133 | 103° | 60km/h | 12712m | -25.7m/s | -59.1°C | 24.5% | 0hPa | 5.5V | 00:00:00 | 00:00:00 | 00:00:00 | |
| LZ4TU-5 | 2026-09-05 06:51:59 | 44.69501 | 20.94027 | 107° | 62km/h | 12839m | -26.0m/s | -60.2°C | 22.8% | 0hPa | 5.5V | 00:00:00 | 00:00:00 | 00:00:00 | |
| LZ4TU-5 | 2026-09-05 06:51:54 | 44.69523 | 20.93919 | 106° | 62km/h | 12970m | -26.3m/s | -61.3°C | 20.5% | 0hPa | 5.5V | 00:00:00 | 00:00:00 | 00:00:00 | |
| LZ4TU-5 | 2026-09-05 06:50:36 | 44.69678 | 20.92402 | 97° | 42km/h | 15221m | -31.1m/s | -62.2°C | 0.0% | 0hPa | 5.5V | 00:00:00 | 00:00:00 | 00:00:00 | |
| LZ4TU-5 | 2026-09-05 06:50:31 | 44.69684 | 20.92345 | 103° | 38km/h | 15350m | -31.7m/s | -61.5°C | 0.0% | 0hPa | 5.5V | 00:00:00 | 00:00:00 | 00:00:00 | |
| LZ4TU-5 | 2026-09-05 06:49:07 | 44.69727 | 20.91179 | 75° | 24km/h | 18248m | -37.8m/s | -58.3°C | 0.0% | 0hPa | 5.5V | 00:00:00 | 00:00:00 | 00:00:00 | |
| LZ4TU-5 | 2026-09-05 06:49:03 | 44.69721 | 20.91146 | 82° | 22km/h | 18405m | -38.4m/s | -58.2°C | 0.0% | 0hPa | 5.5V | 00:00:00 | 00:00:00 | 00:00:00 | |
| LZ4TU-5 | 2026-09-05 06:48:58 | 44.69712 | 20.91108 | 65° | 24km/h | 18601m | -39.8m/s | -57.8°C | 0.0% | 0hPa | 5.5V | 00:00:00 | 00:00:00 | 00:00:00 | |
| LZ4TU-5 | 2026-09-05 06:48:45 | 44.69718 | 20.91033 | 137° | 9km/h | 19120m | -41.0m/s | -58.3°C | 0.0% | 0hPa | 5.5V | 00:00:00 | 00:00:00 | 00:00:00 | |
| LZ4TU-5 | 2026-09-05 06:48:37 | 44.69712 | 20.91016 | 52° | 15km/h | 19443m | -41.1m/s | -57.2°C | 0.0% | 0hPa | 5.5V | 00:00:00 | 00:00:00 | 00:00:00 | |
| LZ4TU-5 | 2026-09-05 06:48:32 | 44.69700 | 20.90995 | 51° | 18km/h | 19653m | -41.7m/s | -56.6°C | 0.0% | 0hPa | 5.5V | 00:00:00 | 00:00:00 | 00:00:00 | |
| LZ4TU-5 | 2026-09-05 06:47:12 | 44.69607 | 20.90843 | 350° | 5km/h | 23480m | -54.5m/s | -51.6°C | 0.0% | 0hPa | 5.5V | 00:00:00 | 00:00:00 | 00:00:00 | |
| LZ4TU-5 | 2026-09-05 06:47:07 | 44.69606 | 20.90845 | 0° | 0km/h | 23755m | -55.7m/s | -51.8°C | 0.0% | 0hPa | 5.5V | 00:00:00 | 00:00:00 | 00:00:00 | |
| LZ4TU-5 | 2026-09-05 06:45:47 | 44.69553 | 20.90812 | 63° | 4km/h | 28833m | -78.4m/s | -42.0°C | 0.5% | 0hPa | 5.5V | 00:00:00 | 00:00:00 | 00:00:00 | |
| LZ4TU-5 | 2026-09-05 06:45:42 | 44.69550 | 20.90805 | 41° | 7km/h | 29223m | -79.9m/s | -42.0°C | 0.7% | 0hPa | 5.5V | 00:00:00 | 00:00:00 | 00:00:00 | |
| PETON7-10 | 2026-09-05 06:45:15 | 44.69525 | 20.90734 | 109° | 27km/h | 31356m | -69.2m/s | -40.7°C | 0% | 0hPa | 5.5V | 00:00:00 | 00:00:00 | 00:00:00 | |
| PETON7-10 | 2026-09-05 06:45:00 | 44.69613 | 20.90659 | 153° | 20km/h | 31763m | 8.6m/s | -41.1°C | 0% | 0hPa | 5.5V | 00:00:00 | 00:00:00 | 00:00:00 | |
| 9A1FER-3 | 2026-09-05 06:44:59 | 44.69618 | 20.90655 | 153° | 18km/h | 31755m | 7.6m/s | -41.1°C | 0% | 0hPa | 5.5V | 00:00:00 | 00:00:00 | 00:00:00 | |
| PETON7-10 | 2026-09-05 06:44:42 | 44.69647 | 20.90575 | 43° | 15km/h | 31630m | 5.6m/s | -41.2°C | 0% | 0hPa | 5.5V | 00:00:00 | 00:00:00 | 00:00:00 | |
| 9A1FER-3 | 2026-09-05 06:44:41 | 44.69643 | 20.90569 | 54° | 11km/h | 31624m | 6.1m/s | -41.1°C | 0% | 0hPa | 5.5V | 00:00:00 | 00:00:00 | 00:00:00 | |
| PETON7-10 | 2026-09-05 06:44:26 | 44.69646 | 20.90530 | 53° | 18km/h | 31510m | 6.3m/s | -41.4°C | 0% | 0hPa | 5.5V | 00:00:00 | 00:00:00 | 00:00:00 | |
| 9A1FER-3 | 2026-09-05 06:44:22 | 44.69643 | 20.90510 | 156° | 18km/h | 31480m | 7.3m/s | -41.4°C | 0% | 0hPa | 5.5V | 00:00:00 | 00:00:00 | 00:00:00 | |
| LZ4TU-5 | 2026-09-05 06:44:16 | 44.69640 | 20.90477 | 86° | 24km/h | 31435m | 8.9m/s | -41.5°C | 1.5% | 0hPa | 5.5V | 00:00:00 | 00:00:00 | 00:00:00 | |
| LZ4TU-5 | 2026-09-05 06:44:11 | 44.69647 | 20.90462 | 281° | 20km/h | 31398m | 9.4m/s | -41.8°C | 1.6% | 0hPa | 5.5V | 00:00:00 | 00:00:00 | 00:00:00 | |
| PETON7-10 | 2026-09-05 06:44:10 | 44.69646 | 20.90470 | 284° | 22km/h | 31393m | 4.5m/s | -41.3°C | 0% | 0hPa | 5.5V | 00:00:00 | 00:00:00 | 00:00:00 | |
| PETON7-10 | 2026-09-05 06:43:52 | 44.69630 | 20.90440 | 105° | 20km/h | 31262m | 5.4m/s | -41.5°C | 0% | 0hPa | 5.5V | 00:00:00 | 00:00:00 | 00:00:00 | |
| 9A1FER-3 | 2026-09-05 06:43:51 | 44.69631 | 20.90431 | 105° | 16km/h | 31257m | 5.2m/s | -41.6°C | 0% | 0hPa | 5.5V | 00:00:00 | 00:00:00 | 00:00:00 | |
| PETON7-10 | 2026-09-05 06:43:37 | 44.69605 | 20.90406 | 240° | 13km/h | 31155m | 9.1m/s | -41.6°C | 0% | 0hPa | 5.5V | 00:00:00 | 00:00:00 | 00:00:00 | |
| 9A1FER-3 | 2026-09-05 06:43:34 | 44.69610 | 20.90410 | 28° | 15km/h | 31135m | 7.5m/s | -41.6°C | 0% | 0hPa | 5.5V | 00:00:00 | 00:00:00 | 00:00:00 | |
| PETON7-10 | 2026-09-05 06:43:22 | 44.69582 | 20.90392 | 23° | 16km/h | 31050m | 7.8m/s | -41.6°C | 0% | 0hPa | 5.5V | 00:00:00 | 00:00:00 | 00:00:00 | |
| 9A1FER-3 | 2026-09-05 06:43:14 | 44.69566 | 20.90348 | 83° | 18km/h | 30990m | 8.4m/s | -41.3°C | 0% | 0hPa | 5.5V | 00:00:00 | 00:00:00 | 00:00:00 | |
| PETON7-10 | 2026-09-05 06:43:06 | 44.69541 | 20.90306 | 59° | 16km/h | 30936m | 8.1m/s | -41.5°C | 0% | 0hPa | 5.5V | 00:00:00 | 00:00:00 | 00:00:00 | |
| 9A1FER-3 | 2026-09-05 06:42:57 | 44.69526 | 20.90273 | 70° | 26km/h | 30873m | 6.6m/s | -41.7°C | 0% | 0hPa | 5.5V | 00:00:00 | 00:00:00 | 00:00:00 | |
| PETON7-10 | 2026-09-05 06:42:50 | 44.69501 | 20.90245 | 59° | 26km/h | 30823m | 7.1m/s | -42.0°C | 0% | 0hPa | 5.5V | 00:00:00 | 00:00:00 | 00:00:00 | |
| 9A1FER-3 | 2026-09-05 06:42:42 | 44.69465 | 20.90181 | 48° | 22km/h | 30768m | 5.5m/s | -42.3°C | 0% | 0hPa | 5.5V | 00:00:00 | 00:00:00 | 00:00:00 | |
| PETON7-10 | 2026-09-05 06:42:33 | 44.69434 | 20.90126 | 74° | 16km/h | 30703m | 6.8m/s | -42.1°C | 0% | 0hPa | 5.5V | 00:00:00 | 00:00:00 | 00:00:00 | |
| 9A1FER-3 | 2026-09-05 06:42:27 | 44.69410 | 20.90117 | 7° | 15km/h | 30660m | 6.4m/s | -41.8°C | 0% | 0hPa | 5.5V | 00:00:00 | 00:00:00 | 00:00:00 | |
| LZ4TU-5 | 2026-09-05 06:42:25 | 44.69407 | 20.90113 | 52° | 13km/h | 30646m | 7.7m/s | -42.2°C | 1.5% | 0hPa | 5.5V | 00:00:00 | 00:00:00 | 00:00:00 | |
| LZ4TU-5 | 2026-09-05 06:42:20 | 44.69384 | 20.90092 | 59° | 15km/h | 30610m | 8.1m/s | -42.1°C | 1.5% | 0hPa | 5.5V | 00:00:00 | 00:00:00 | 00:00:00 | |
| PETON7-10 | 2026-09-05 06:42:18 | 44.69382 | 20.90084 | 79° | 13km/h | 30597m | 6.2m/s | -41.8°C | 0% | 0hPa | 5.5V | 00:00:00 | 00:00:00 | 00:00:00 | |
| 9A1FER-3 | 2026-09-05 06:42:10 | 44.69362 | 20.90085 | 116° | 13km/h | 30539m | 6.3m/s | -42.1°C | 0% | 0hPa | 5.5V | 00:00:00 | 00:00:00 | 00:00:00 | |
| PETON7-10 | 2026-09-05 06:42:02 | 44.69340 | 20.90101 | 342° | 13km/h | 30482m | 6.9m/s | -42.5°C | 0% | 0hPa | 5.5V | 00:00:00 | 00:00:00 | 00:00:00 | |
| 9A1FER-3 | 2026-09-05 06:41:54 | 44.69327 | 20.90095 | 280° | 15km/h | 30423m | 7.6m/s | -42.6°C | 0% | 0hPa | 5.5V | 00:00:00 | 00:00:00 | 00:00:00 | |
| 9A1FER-3 | 2026-09-05 06:41:37 | 44.69270 | 20.90112 | 23° | 16km/h | 30296m | 7.2m/s | -42.3°C | 0% | 0hPa | 5.5V | 00:00:00 | 00:00:00 | 00:00:00 | |
| PETON7-10 | 2026-09-05 06:41:32 | 44.69257 | 20.90108 | 293° | 15km/h | 30257m | 8.9m/s | -42.3°C | 0% | 0hPa | 5.5V | 00:00:00 | 00:00:00 | 00:00:00 | |
| 9A1FER-3 | 2026-09-05 06:41:21 | 44.69234 | 20.90116 | 216° | 11km/h | 30176m | 8.8m/s | -42.0°C | 0% | 0hPa | 5.5V | 00:00:00 | 00:00:00 | 00:00:00 | |
| PETON7-10 | 2026-09-05 06:41:17 | 44.69242 | 20.90132 | 320° | 16km/h | 30147m | 8.1m/s | -42.1°C | 0% | 0hPa | 5.5V | 00:00:00 | 00:00:00 | 00:00:00 | |
| PETON7-10 | 2026-09-05 06:41:00 | 44.69213 | 20.90132 | 15° | 16km/h | 30023m | 6.9m/s | -42.4°C | 0% | 0hPa | 5.5V | 00:00:00 | 00:00:00 | 00:00:00 | |
| LZ4TU-5 | 2026-09-05 06:40:59 | 44.69209 | 20.90131 | 15° | 5km/h | 30015m | 8.5m/s | -42.9°C | 1.3% | 0hPa | 5.7V | 00:00:00 | 00:00:00 | 00:00:00 | |
| LZ4TU-5 | 2026-09-05 06:40:55 | 44.69217 | 20.90138 | 222° | 7km/h | 29985m | 4.7m/s | -42.9°C | 1.3% | 0hPa | 5.7V | 00:00:00 | 00:00:00 | 00:00:00 | |
| PETON7-10 | 2026-09-05 06:40:44 | 44.69178 | 20.90118 | 193° | 20km/h | 29902m | 7.6m/s | -42.7°C | 0% | 0hPa | 5.7V | 00:00:00 | 00:00:00 | 00:00:00 | |
| PETON7-10 | 2026-09-05 06:40:29 | 44.69145 | 20.90062 | 60° | 24km/h | 29796m | 7.2m/s | -42.9°C | 0% | 0hPa | 5.7V | 00:00:00 | 00:00:00 | 00:00:00 | |
| GYPAP8-17 | 2026-09-05 06:40:14 | 44.69090 | 20.90008 | 10° | 35km/h | 29688m | 6.2m/s | -43.2°C | 1.5% | 0hPa | 5.7V | 00:00:00 | 00:00:00 | 00:00:00 | |
| LZ4TU-5 | 2026-09-05 06:39:35 | 44.69030 | 20.90013 | 229° | 16km/h | 29414m | 4.8m/s | -43.5°C | 1.5% | 0hPa | 5.7V | 00:00:00 | 00:00:00 | 00:00:00 | |
| LZ4TU-5 | 2026-09-05 06:39:30 | 44.69031 | 20.89999 | 58° | 13km/h | 29377m | 8.0m/s | -43.6°C | 1.4% | 0hPa | 5.7V | 00:00:00 | 00:00:00 | 00:00:00 | |
| GYPAP8-17 | 2026-09-05 06:38:44 | 44.69019 | 20.90058 | 122° | 9km/h | 29070m | 7.3m/s | -43.3°C | 1.2% | 0hPa | 5.7V | 00:00:00 | 00:00:00 | 00:00:00 | |
| LZ4TU-5 | 2026-09-05 06:38:09 | 44.69056 | 20.89998 | 318° | 9km/h | 28844m | 5.5m/s | -44.0°C | 1.2% | 0hPa | 5.7V | 00:00:00 | 00:00:00 | 00:00:00 | |
| GYPAP8-17 | 2026-09-05 06:38:07 | 44.69049 | 20.90003 | 342° | 16km/h | 28830m | 5.8m/s | -44.0°C | 1.2% | 0hPa | 5.7V | 00:00:00 | 00:00:00 | 00:00:00 | |
| LZ4TU-5 | 2026-09-05 06:38:04 | 44.69044 | 20.89994 | 110° | 20km/h | 28808m | 8.1m/s | -44.0°C | 1.2% | 0hPa | 5.7V | 00:00:00 | 00:00:00 | 00:00:00 | |
| GYPAP8-17 | 2026-09-05 06:37:03 | 44.69189 | 20.89841 | 117° | 35km/h | 28392m | 6.0m/s | -45.4°C | 1.2% | 0hPa | 5.7V | 00:00:00 | 00:00:00 | 00:00:00 | |
| LZ4TU-5 | 2026-09-05 06:36:45 | 44.69183 | 20.89725 | 12° | 18km/h | 28261m | 8.1m/s | -45.6°C | 1.2% | 0hPa | 5.7V | 00:00:00 | 00:00:00 | 00:00:00 | |
| LZ4TU-5 | 2026-09-05 06:36:40 | 44.69166 | 20.89700 | 69° | 22km/h | 28225m | 6.1m/s | -45.6°C | 1.2% | 0hPa | 5.7V | 00:00:00 | 00:00:00 | 00:00:00 | |
| GYPAP8-17 | 2026-09-05 06:36:19 | 44.69097 | 20.89631 | 29° | 24km/h | 28074m | 5.5m/s | -45.3°C | 1.1% | 0hPa | 5.7V | 00:00:00 | 00:00:00 | 00:00:00 | |
| GYPAP8-17 | 2026-09-05 06:35:30 | 44.69021 | 20.89429 | 127° | 22km/h | 27715m | 6.4m/s | -45.7°C | 1.0% | 0hPa | 5.7V | 00:00:00 | 00:00:00 | 00:00:00 | |
| LZ4TU-5 | 2026-09-05 06:35:17 | 44.68993 | 20.89345 | 142° | 11km/h | 27625m | 6.7m/s | -45.8°C | 0.9% | 0hPa | 5.7V | 00:00:00 | 00:00:00 | 00:00:00 | |
| LZ4TU-5 | 2026-09-05 06:35:12 | 44.68968 | 20.89335 | 25° | 47km/h | 27589m | 8.4m/s | -46.0°C | 0.9% | 0hPa | 5.7V | 00:00:00 | 00:00:00 | 00:00:00 | |
| GYPAP8-17 | 2026-09-05 06:35:08 | 44.68935 | 20.89306 | 29° | 27km/h | 27563m | 7.3m/s | -46.0°C | 0.9% | 0hPa | 5.7V | 00:00:00 | 00:00:00 | 00:00:00 | |
| LZ4TU-5 | 2026-09-05 06:35:07 | 44.68930 | 20.89304 | 360° | 20km/h | 27556m | 6.9m/s | -46.0°C | 0.9% | 0hPa | 5.7V | 00:00:00 | 00:00:00 | 00:00:00 | |
| GYPAP8-17 | 2026-09-05 06:34:45 | 44.68834 | 20.89266 | 360° | 31km/h | 27408m | 6.1m/s | -46.3°C | 1.0% | 0hPa | 5.7V | 00:00:00 | 00:00:00 | 00:00:00 | |
| GYPAP8-17 | 2026-09-05 06:34:20 | 44.68756 | 20.89230 | 340° | 18km/h | 27240m | 8.6m/s | -46.9°C | 1.2% | 0hPa | 5.7V | 00:00:00 | 00:00:00 | 00:00:00 | |
| OM5KV | 2026-09-05 06:34:18 | 44.68750 | 20.89240 | 296° | 22km/h | 27226m | 5.6m/s | -47.0°C | 1.1% | 0hPa | 5.7V | 00:00:00 | 00:00:00 | 00:00:00 | |
| OM5KV | 2026-09-05 06:34:12 | 44.68722 | 20.89244 | 17° | 24km/h | 27188m | 8.0m/s | -46.9°C | 1.0% | 0hPa | 5.7V | 00:00:00 | 00:00:00 | 00:00:00 | |
| OM5KV | 2026-09-05 06:34:01 | 44.68677 | 20.89290 | 360° | 20km/h | 27117m | 6.4m/s | -46.9°C | 1.0% | 0hPa | 5.7V | 00:00:00 | 00:00:00 | 00:00:00 | |
| LZ4TU-5 | 2026-09-05 06:33:46 | 44.68605 | 20.89330 | 349° | 31km/h | 27018m | 5.2m/s | -46.6°C | 0.9% | 0hPa | 5.7V | 00:00:00 | 00:00:00 | 00:00:00 | |
| LZ4TU-5 | 2026-09-05 06:33:41 | 44.68588 | 20.89337 | 342° | 13km/h | 26986m | 5.9m/s | -46.4°C | 0.8% | 0hPa | 5.7V | 00:00:00 | 00:00:00 | 00:00:00 | |
| OM5KV | 2026-09-05 06:33:39 | 44.68583 | 20.89343 | 308° | 16km/h | 26974m | 7.7m/s | -46.5°C | 0.7% | 0hPa | 5.7V | 00:00:00 | 00:00:00 | 00:00:00 | |
| OM5KV | 2026-09-05 06:33:32 | 44.68557 | 20.89360 | 40° | 22km/h | 26930m | 6.8m/s | -46.6°C | 0.8% | 0hPa | 5.7V | 00:00:00 | 00:00:00 | 00:00:00 | |
| OM5KV | 2026-09-05 06:33:30 | 44.68553 | 20.89356 | 282° | 2km/h | 26917m | 4.8m/s | -46.8°C | 0.7% | 0hPa | 5.7V | 00:00:00 | 00:00:00 | 00:00:00 | |
| OM5KV | 2026-09-05 06:33:25 | 44.68546 | 20.89387 | 301° | 20km/h | 26884m | 6.8m/s | -47.0°C | 0.8% | 0hPa | 5.7V | 00:00:00 | 00:00:00 | 00:00:00 | |
| OM5KV | 2026-09-05 06:33:14 | 44.68511 | 20.89379 | 342° | 11km/h | 26817m | 4.7m/s | -47.2°C | 0.9% | 0hPa | 5.7V | 00:00:00 | 00:00:00 | 00:00:00 | |
| OM5KV | 2026-09-05 06:33:08 | 44.68473 | 20.89363 | 20° | 24km/h | 26780m | 4.8m/s | -47.4°C | 0.8% | 0hPa | 5.7V | 00:00:00 | 00:00:00 | 00:00:00 | |
| OM5KV | 2026-09-05 06:32:54 | 44.68409 | 20.89390 | 305° | 15km/h | 26687m | 6.5m/s | -47.9°C | 0.9% | 0hPa | 5.7V | 00:00:00 | 00:00:00 | 00:00:00 | |
| OM5KV | 2026-09-05 06:32:53 | 44.68407 | 20.89393 | 316° | 13km/h | 26680m | 6.9m/s | -47.9°C | 0.8% | 0hPa | 5.7V | 00:00:00 | 00:00:00 | 00:00:00 | |
| OM5KV | 2026-09-05 06:32:46 | 44.68390 | 20.89391 | 306° | 7km/h | 26636m | 5.7m/s | -48.0°C | 0.9% | 0hPa | 5.7V | 00:00:00 | 00:00:00 | 00:00:00 | |
| OM5KV | 2026-09-05 06:32:43 | 44.68379 | 20.89403 | 337° | 27km/h | 26615m | 5.8m/s | -48.1°C | 0.9% | 0hPa | 5.7V | 00:00:00 | 00:00:00 | 00:00:00 | |
| OM5KV | 2026-09-05 06:32:38 | 44.68369 | 20.89411 | 157° | 13km/h | 26584m | 4.9m/s | -48.1°C | 0.9% | 0hPa | 5.7V | 00:00:00 | 00:00:00 | 00:00:00 | |
| OM5KV | 2026-09-05 06:32:26 | 44.68355 | 20.89410 | 139° | 16km/h | 26499m | 6.6m/s | -48.2°C | 0.9% | 0hPa | 5.7V | 00:00:00 | 00:00:00 | 00:00:00 | |
| OM5KV | 2026-09-05 06:32:23 | 44.68357 | 20.89410 | 321° | 15km/h | 26477m | 9.1m/s | -48.3°C | 0.8% | 0hPa | 5.7V | 00:00:00 | 00:00:00 | 00:00:00 | |
| GYPAP8-17 | 2026-09-05 06:32:21 | 44.68347 | 20.89420 | 330° | 29km/h | 26465m | 6.0m/s | -48.4°C | 0.8% | 0hPa | 5.7V | 00:00:00 | 00:00:00 | 00:00:00 | |
| LZ4TU-5 | 2026-09-05 06:32:16 | 44.68336 | 20.89418 | 92° | 4km/h | 26428m | 7.6m/s | -48.4°C | 0.9% | 0hPa | 5.7V | 00:00:00 | 00:00:00 | 00:00:00 | |
| OM5KV | 2026-09-05 06:32:15 | 44.68336 | 20.89418 | 314° | 7km/h | 26422m | 6.4m/s | -48.4°C | 0.9% | 0hPa | 5.7V | 00:00:00 | 00:00:00 | 00:00:00 | |
| OM5KV | 2026-09-05 06:32:13 | 44.68332 | 20.89427 | 295° | 18km/h | 26406m | 8.6m/s | -48.5°C | 0.9% | 0hPa | 5.7V | 00:00:00 | 00:00:00 | 00:00:00 | |
| OM5KV | 2026-09-05 06:32:09 | 44.68321 | 20.89451 | 340° | 20km/h | 26379m | 7.9m/s | -48.5°C | 1.0% | 0hPa | 5.7V | 00:00:00 | 00:00:00 | 00:00:00 | |
| OM5KV | 2026-09-05 06:32:00 | 44.68307 | 20.89468 | 301° | 5km/h | 26317m | 8.5m/s | -48.5°C | 0.8% | 0hPa | 5.7V | 00:00:00 | 00:00:00 | 00:00:00 | |
| OM5KV | 2026-09-05 06:31:56 | 44.68302 | 20.89479 | 317° | 16km/h | 26291m | 5.3m/s | -48.6°C | 0.8% | 0hPa | 5.7V | 00:00:00 | 00:00:00 | 00:00:00 | |
| OM5KV | 2026-09-05 06:31:55 | 44.68299 | 20.89483 | 310° | 11km/h | 26286m | 4.3m/s | -48.6°C | 0.8% | 0hPa | 5.7V | 00:00:00 | 00:00:00 | 00:00:00 | |
| OM5KV | 2026-09-05 06:31:54 | 44.68299 | 20.89485 | 289° | 4km/h | 26278m | 8.5m/s | -48.6°C | 0.8% | 0hPa | 5.7V | 00:00:00 | 00:00:00 | 00:00:00 | |
| OM5KV | 2026-09-05 06:31:43 | 44.68301 | 20.89486 | 284° | 15km/h | 26199m | 4.1m/s | -48.7°C | 0.9% | 0hPa | 5.7V | 00:00:00 | 00:00:00 | 00:00:00 | |
| OM5KV | 2026-09-05 06:31:38 | 44.68309 | 20.89478 | 116° | 24km/h | 26163m | 8.0m/s | -48.7°C | 0.9% | 0hPa | 5.7V | 00:00:00 | 00:00:00 | 00:00:00 | |
| OM5KV | 2026-09-05 06:31:29 | 44.68299 | 20.89458 | 0° | 0km/h | 26103m | 5.4m/s | -48.8°C | 0.8% | 0hPa | 5.7V | 00:00:00 | 00:00:00 | 00:00:00 | |
| OM5KV | 2026-09-05 06:31:28 | 44.68298 | 20.89457 | 68° | 7km/h | 26089m | 7.4m/s | -48.7°C | 0.7% | 0hPa | 5.7V | 00:00:00 | 00:00:00 | 00:00:00 | |
| OM5KV | 2026-09-05 06:31:20 | 44.68285 | 20.89437 | 7° | 7km/h | 26043m | 7.7m/s | -48.9°C | 0.7% | 0hPa | 5.7V | 00:00:00 | 00:00:00 | 00:00:00 | |
| OM5KV | 2026-09-05 06:31:14 | 44.68272 | 20.89432 | 45° | 9km/h | 26000m | 7.8m/s | -48.8°C | 0.7% | 0hPa | 5.7V | 00:00:00 | 00:00:00 | 00:00:00 | |
| OM5KV | 2026-09-05 06:31:11 | 44.68266 | 20.89429 | 347° | 9km/h | 25978m | 7.5m/s | -48.7°C | 0.7% | 0hPa | 5.7V | 00:00:00 | 00:00:00 | 00:00:00 | |
| OM5KV | 2026-09-05 06:31:10 | 44.68264 | 20.89430 | 322° | 9km/h | 25972m | 5.8m/s | -48.7°C | 0.7% | 0hPa | 5.7V | 00:00:00 | 00:00:00 | 00:00:00 | |
| OM5KV | 2026-09-05 06:31:07 | 44.68253 | 20.89440 | 339° | 26km/h | 25952m | 7.9m/s | -48.9°C | 0.8% | 0hPa | 5.7V | 00:00:00 | 00:00:00 | 00:00:00 | |
| OM5KV | 2026-09-05 06:31:04 | 44.68233 | 20.89440 | 20° | 20km/h | 25932m | 8.1m/s | -49.1°C | 0.8% | 0hPa | 5.7V | 00:00:00 | 00:00:00 | 00:00:00 | |
| GYPAP8-17 | 2026-09-05 06:31:00 | 44.68223 | 20.89429 | 13° | 18km/h | 25906m | 6.6m/s | -49.5°C | 0.8% | 0hPa | 5.7V | 00:00:00 | 00:00:00 | 00:00:00 | |
| OM5KV | 2026-09-05 06:30:59 | 44.68217 | 20.89429 | 1° | 27km/h | 25900m | 5.9m/s | -49.5°C | 0.8% | 0hPa | 5.7V | 00:00:00 | 00:00:00 | 00:00:00 | |
| OM5KV | 2026-09-05 06:30:54 | 44.68183 | 20.89442 | 342° | 27km/h | 25867m | 7.1m/s | -49.6°C | 0.8% | 0hPa | 5.7V | 00:00:00 | 00:00:00 | 00:00:00 | |
| OM5KV | 2026-09-05 06:30:53 | 44.68176 | 20.89445 | 348° | 29km/h | 25861m | 6.1m/s | -49.5°C | 0.8% | 0hPa | 5.7V | 00:00:00 | 00:00:00 | 00:00:00 | |
| LZ4TU-5 | 2026-09-05 06:30:46 | 44.68144 | 20.89480 | 321° | 37km/h | 25818m | 7.9m/s | -49.5°C | 0.8% | 0hPa | 5.7V | 00:00:00 | 00:00:00 | 00:00:00 | |
| OM5KV | 2026-09-05 06:30:45 | 44.68136 | 20.89489 | 326° | 40km/h | 25813m | 5.0m/s | -49.5°C | 0.7% | 0hPa | 5.7V | 00:00:00 | 00:00:00 | 00:00:00 | |
| OM5KV | 2026-09-05 06:30:44 | 44.68128 | 20.89497 | 328° | 37km/h | 25805m | 7.4m/s | -49.5°C | 0.7% | 0hPa | 5.7V | 00:00:00 | 00:00:00 | 00:00:00 | |
| LZ4TU-5 | 2026-09-05 06:30:41 | 44.68112 | 20.89509 | 324° | 15km/h | 25786m | 6.8m/s | -49.4°C | 0.7% | 0hPa | 5.7V | 00:00:00 | 00:00:00 | 00:00:00 | |
| OM5KV | 2026-09-05 06:30:35 | 44.68097 | 20.89549 | 304° | 31km/h | 25748m | 6.6m/s | -49.5°C | 0.7% | 0hPa | 5.7V | 00:00:00 | 00:00:00 | 00:00:00 | |
| OM5KV | 2026-09-05 06:30:33 | 44.68090 | 20.89569 | 293° | 29km/h | 25735m | 5.4m/s | -49.4°C | 0.7% | 0hPa | 5.7V | 00:00:00 | 00:00:00 | 00:00:00 | |
| OM5KV | 2026-09-05 06:30:29 | 44.68078 | 20.89594 | 311° | 15km/h | 25709m | 5.6m/s | -49.5°C | 0.6% | 0hPa | 5.7V | 00:00:00 | 00:00:00 | 00:00:00 | |
| OM5KV | 2026-09-05 06:30:23 | 44.68074 | 20.89634 | 297° | 35km/h | 25671m | 5.1m/s | -49.8°C | 0.7% | 0hPa | 5.7V | 00:00:00 | 00:00:00 | 00:00:00 | |
| OM5KV | 2026-09-05 06:30:17 | 44.68081 | 20.89679 | 227° | 31km/h | 25634m | 6.9m/s | -49.9°C | 0.7% | 0hPa | 5.7V | 00:00:00 | 00:00:00 | 00:00:00 | |
| OM5KV | 2026-09-05 06:30:11 | 44.68092 | 20.89724 | 259° | 20km/h | 25599m | 7.4m/s | -50.0°C | 0.7% | 0hPa | 5.7V | 00:00:00 | 00:00:00 | 00:00:00 | |
| OM5KV | 2026-09-05 06:30:06 | 44.68119 | 20.89762 | 215° | 29km/h | 25568m | 4.5m/s | -50.0°C | 0.7% | 0hPa | 5.7V | 00:00:00 | 00:00:00 | 00:00:00 | |
| OM5KV | 2026-09-05 06:30:04 | 44.68130 | 20.89769 | 200° | 15km/h | 25556m | 5.5m/s | -49.9°C | 0.7% | 0hPa | 5.7V | 00:00:00 | 00:00:00 | 00:00:00 | |
| OM5KV | 2026-09-05 06:29:58 | 44.68142 | 20.89796 | 219° | 26km/h | 25521m | 6.3m/s | -49.9°C | 0.7% | 0hPa | 5.7V | 00:00:00 | 00:00:00 | 00:00:00 | |
| OM5KV | 2026-09-05 06:29:53 | 44.68175 | 20.89816 | 190° | 27km/h | 25492m | 4.8m/s | -50.0°C | 0.6% | 0hPa | 5.7V | 00:00:00 | 00:00:00 | 00:00:00 | |
| GYPAP8-17 | 2026-09-05 06:29:48 | 44.68190 | 20.89830 | 234° | 18km/h | 25460m | 6.7m/s | -50.3°C | 0.7% | 0hPa | 5.7V | 00:00:00 | 00:00:00 | 00:00:00 | |
| OM5KV | 2026-09-05 06:29:36 | 44.68246 | 20.89847 | 235° | 18km/h | 25386m | 8.2m/s | -50.1°C | 0.6% | 0hPa | 5.7V | 00:00:00 | 00:00:00 | 00:00:00 | |
| OM5KV | 2026-09-05 06:29:31 | 44.68269 | 20.89868 | 206° | 15km/h | 25355m | 7.2m/s | -50.0°C | 0.6% | 0hPa | 5.7V | 00:00:00 | 00:00:00 | 00:00:00 | |
| OM5KV | 2026-09-05 06:29:30 | 44.68271 | 20.89869 | 214° | 7km/h | 25349m | 5.9m/s | -50.1°C | 0.6% | 0hPa | 5.7V | 00:00:00 | 00:00:00 | 00:00:00 | |
| OM5KV | 2026-09-05 06:29:19 | 44.68297 | 20.89877 | 121° | 11km/h | 25281m | 5.3m/s | -50.5°C | 0.6% | 0hPa | 5.7V | 00:00:00 | 00:00:00 | 00:00:00 | |
| LZ4TU-5 | 2026-09-05 06:29:13 | 44.68306 | 20.89870 | 210° | 13km/h | 25245m | 3.6m/s | -50.6°C | 0.6% | 0hPa | 5.7V | 00:00:00 | 00:00:00 | 00:00:00 | |
| LZ4TU-5 | 2026-09-05 06:29:08 | 44.68312 | 20.89886 | 188° | 7km/h | 25212m | 7.5m/s | -50.6°C | 0.5% | 0hPa | 5.7V | 00:00:00 | 00:00:00 | 00:00:00 | |
| OM5KV | 2026-09-05 06:29:05 | 44.68324 | 20.89884 | 172° | 15km/h | 25195m | 5.8m/s | -50.6°C | 0.5% | 0hPa | 5.7V | 00:00:00 | 00:00:00 | 00:00:00 | |
| OM5KV | 2026-09-05 06:29:01 | 44.68327 | 20.89889 | 274° | 9km/h | 25168m | 7.3m/s | -50.8°C | 0.6% | 0hPa | 5.7V | 00:00:00 | 00:00:00 | 00:00:00 | |
| OM5KV | 2026-09-05 06:28:56 | 44.68336 | 20.89910 | 197° | 16km/h | 25141m | 6.2m/s | -51.1°C | 0.6% | 0hPa | 5.7V | 00:00:00 | 00:00:00 | 00:00:00 | |
| OM5KV | 2026-09-05 06:28:55 | 44.68340 | 20.89910 | 160° | 13km/h | 25131m | 9.8m/s | -51.1°C | 0.6% | 0hPa | 5.7V | 00:00:00 | 00:00:00 | 00:00:00 | |
| OM5KV | 2026-09-05 06:28:47 | 44.68347 | 20.89888 | 210° | 13km/h | 25081m | 5.7m/s | -51.5°C | 0.6% | 0hPa | 5.7V | 00:00:00 | 00:00:00 | 00:00:00 | |
| OM5KV | 2026-09-05 06:28:39 | 44.68351 | 20.89879 | 86° | 26km/h | 25030m | 6.1m/s | -51.3°C | 0.5% | 0hPa | 5.7V | 00:00:00 | 00:00:00 | 00:00:00 | |
| OM5KV | 2026-09-05 06:28:37 | 44.68353 | 20.89861 | 107° | 20km/h | 25021m | 3.9m/s | -51.4°C | 0.5% | 0hPa | 5.7V | 00:00:00 | 00:00:00 | 00:00:00 | |
| OM5KV | 2026-09-05 06:28:31 | 44.68354 | 20.89858 | 108° | 9km/h | 24983m | 5.2m/s | -51.5°C | 0.6% | 0hPa | 5.7V | 00:00:00 | 00:00:00 | 00:00:00 | |
| OM5KV | 2026-09-05 06:28:26 | 44.68353 | 20.89815 | 109° | 22km/h | 24952m | 6.4m/s | -51.4°C | 0.6% | 0hPa | 5.7V | 00:00:00 | 00:00:00 | 00:00:00 | |
| OM5KV | 2026-09-05 06:28:21 | 44.68367 | 20.89825 | 274° | 15km/h | 24920m | 5.0m/s | -51.6°C | 0.6% | 0hPa | 5.7V | 00:00:00 | 00:00:00 | 00:00:00 | |
| OM5KV | 2026-09-05 06:28:15 | 44.68358 | 20.89816 | 72° | 15km/h | 24883m | 4.4m/s | -51.8°C | 0.6% | 0hPa | 5.7V | 00:00:00 | 00:00:00 | 00:00:00 | |
| GYPAP8-17 | 2026-09-05 06:28:11 | 44.68360 | 20.89812 | 262° | 15km/h | 24856m | 8.4m/s | -52.1°C | 0.7% | 0hPa | 5.7V | 00:00:00 | 00:00:00 | 00:00:00 | |
| LZ4TU-5 | 2026-09-05 06:27:41 | 44.68382 | 20.89795 | 77° | 13km/h | 24663m | 6.9m/s | -51.8°C | 0.6% | 0hPa | 5.7V | 00:00:00 | 00:00:00 | 00:00:00 | |
| LZ4TU-5 | 2026-09-05 06:27:37 | 44.68384 | 20.89782 | 181° | 9km/h | 24638m | 6.1m/s | -51.6°C | 0.6% | 0hPa | 5.7V | 00:00:00 | 00:00:00 | 00:00:00 | |
| OM5KV | 2026-09-05 06:27:23 | 44.68394 | 20.89775 | 141° | 7km/h | 24544m | 7.2m/s | -52.0°C | 0.7% | 0hPa | 5.7V | 00:00:00 | 00:00:00 | 00:00:00 | |
| OM5KV | 2026-09-05 06:27:22 | 44.68396 | 20.89772 | 142° | 11km/h | 24537m | 6.7m/s | -51.9°C | 0.7% | 0hPa | 5.7V | 00:00:00 | 00:00:00 | 00:00:00 | |
| GYPAP8-17 | 2026-09-05 06:27:18 | 44.68400 | 20.89771 | 288° | 5km/h | 24512m | 5.6m/s | -52.2°C | 0.7% | 0hPa | 5.7V | 00:00:00 | 00:00:00 | 00:00:00 | |
| OE3JTB-15 | 2026-09-05 06:27:14 | 44.68405 | 20.89766 | 134° | 11km/h | 24485m | 7.2m/s | -51.6°C | 0% | 0hPa | 5.7V | 00:00:00 | 00:00:00 | 00:00:00 | |
| OM5KV | 2026-09-05 06:27:12 | 44.68407 | 20.89760 | 109° | 11km/h | 24471m | 6.3m/s | -52.2°C | 0.7% | 0hPa | 5.7V | 00:00:00 | 00:00:00 | 00:00:00 | |
| OM5KV | 2026-09-05 06:27:11 | 44.68408 | 20.89756 | 109° | 13km/h | 24464m | 7.7m/s | -52.2°C | 0.6% | 0hPa | 5.7V | 00:00:00 | 00:00:00 | 00:00:00 | |
| OM5KV | 2026-09-05 06:27:05 | 44.68405 | 20.89732 | 59° | 9km/h | 24426m | 6.8m/s | -52.2°C | 0.6% | 0hPa | 5.7V | 00:00:00 | 00:00:00 | 00:00:00 | |
| OM5KV | 2026-09-05 06:27:01 | 44.68414 | 20.89725 | 193° | 13km/h | 24400m | 7.2m/s | -52.2°C | 0.7% | 0hPa | 5.7V | 00:00:00 | 00:00:00 | 00:00:00 | |
| OM5KV | 2026-09-05 06:26:51 | 44.68406 | 20.89706 | 177° | 11km/h | 24333m | 8.6m/s | -52.5°C | 0.8% | 0hPa | 5.7V | 00:00:00 | 00:00:00 | 00:00:00 | |
| OM5KV | 2026-09-05 06:26:45 | 44.68417 | 20.89705 | 68° | 11km/h | 24291m | 8.3m/s | -52.6°C | 0.8% | 0hPa | 5.7V | 00:00:00 | 00:00:00 | 00:00:00 | |
| OM5KV | 2026-09-05 06:26:44 | 44.68416 | 20.89701 | 80° | 15km/h | 24285m | 5.4m/s | -52.6°C | 0.9% | 0hPa | 5.7V | 00:00:00 | 00:00:00 | 00:00:00 | |
| OE3JTB-15 | 2026-09-05 06:26:43 | 44.68416 | 20.89695 | 86° | 18km/h | 24279m | 6.5m/s | -52.0°C | 0% | 0hPa | 5.7V | 00:00:00 | 00:00:00 | 00:00:00 | |
| OM5KV | 2026-09-05 06:26:39 | 44.68418 | 20.89692 | 203° | 16km/h | 24254m | 6.4m/s | -52.7°C | 0.9% | 0hPa | 5.7V | 00:00:00 | 00:00:00 | 00:00:00 | |
| OM5KV | 2026-09-05 06:26:23 | 44.68499 | 20.89684 | 179° | 20km/h | 24147m | 3.5m/s | -52.1°C | 1.0% | 0hPa | 5.7V | 00:00:00 | 00:00:00 | 00:00:00 | |
| GYPAP8-17 | 2026-09-05 06:26:20 | 44.68509 | 20.89674 | 111° | 15km/h | 24125m | 6.3m/s | -51.9°C | 0.9% | 0hPa | 5.7V | 00:00:00 | 00:00:00 | 00:00:00 | |
| LZ4TU-5 | 2026-09-05 06:26:19 | 44.68510 | 20.89670 | 115° | 11km/h | 24117m | 8.3m/s | -51.8°C | 0.9% | 0hPa | 5.7V | 00:00:00 | 00:00:00 | 00:00:00 | |
| LZ4TU-5 | 2026-09-05 06:26:14 | 44.68520 | 20.89658 | 159° | 13km/h | 24084m | 7.1m/s | -51.6°C | 0.8% | 0hPa | 5.7V | 00:00:00 | 00:00:00 | 00:00:00 | |
| OM5KV | 2026-09-05 06:26:06 | 44.68539 | 20.89632 | 87° | 9km/h | 24031m | 6.1m/s | -51.6°C | 0.8% | 0hPa | 5.7V | 00:00:00 | 00:00:00 | 00:00:00 | |
| OM5KV | 2026-09-05 06:25:52 | 44.68549 | 20.89587 | 70° | 9km/h | 23937m | 7.1m/s | -51.5°C | 0.8% | 0hPa | 5.7V | 00:00:00 | 00:00:00 | 00:00:00 | |
| OM5KV | 2026-09-05 06:25:51 | 44.68548 | 20.89584 | 64° | 7km/h | 23932m | 4.8m/s | -51.5°C | 0.8% | 0hPa | 5.7V | 00:00:00 | 00:00:00 | 00:00:00 | |
| OM5KV | 2026-09-05 06:25:46 | 44.68552 | 20.89573 | 91° | 15km/h | 23898m | 7.7m/s | -51.3°C | 0.8% | 0hPa | 5.7V | 00:00:00 | 00:00:00 | 00:00:00 | |
| OM5KV | 2026-09-05 06:25:38 | 44.68547 | 20.89547 | 180° | 4km/h | 23847m | 6.2m/s | -51.3°C | 0.6% | 0hPa | 5.7V | 00:00:00 | 00:00:00 | 00:00:00 | |
| OM5KV | 2026-09-05 06:25:37 | 44.68548 | 20.89548 | 0° | 0km/h | 23839m | 7.9m/s | -51.3°C | 0.7% | 0hPa | 5.7V | 00:00:00 | 00:00:00 | 00:00:00 | |
| GYPAP8-17 | 2026-09-05 06:25:34 | 44.68544 | 20.89544 | 65° | 15km/h | 23820m | 8.0m/s | -51.5°C | 0.7% | 0hPa | 5.7V | 00:00:00 | 00:00:00 | 00:00:00 | |
| OM5KV | 2026-09-05 06:25:23 | 44.68545 | 20.89535 | 353° | 13km/h | 23748m | 6.2m/s | -51.5°C | 0.7% | 0hPa | 5.7V | 00:00:00 | 00:00:00 | 00:00:00 | |
| OM5KV | 2026-09-05 06:25:19 | 44.68542 | 20.89521 | 120° | 13km/h | 23722m | 7.0m/s | -51.4°C | 0.7% | 0hPa | 5.7V | 00:00:00 | 00:00:00 | 00:00:00 | |
| OM5KV | 2026-09-05 06:25:13 | 44.68560 | 20.89515 | 151° | 4km/h | 23685m | 7.5m/s | -51.4°C | 0.7% | 0hPa | 5.7V | 00:00:00 | 00:00:00 | 00:00:00 | |
| OM5KV | 2026-09-05 06:25:07 | 44.68563 | 20.89506 | 184° | 20km/h | 23645m | 6.5m/s | -51.4°C | 0.7% | 0hPa | 5.7V | 00:00:00 | 00:00:00 | 00:00:00 | |
| OM5KV | 2026-09-05 06:25:00 | 44.68594 | 20.89511 | 119° | 16km/h | 23601m | 5.5m/s | -51.4°C | 0.6% | 0hPa | 5.7V | 00:00:00 | 00:00:00 | 00:00:00 | |
| GYPAP8-17 | 2026-09-05 06:24:54 | 44.68602 | 20.89497 | 191° | 13km/h | 23561m | 5.9m/s | -51.2°C | 0.5% | 0hPa | 5.7V | 00:00:00 | 00:00:00 | 00:00:00 | |
| LZ4TU-5 | 2026-09-05 06:24:49 | 44.68606 | 20.89490 | 83° | 18km/h | 23530m | 5.1m/s | -51.0°C | 0% | 0hPa | 5.7V | 00:00:00 | 00:00:00 | 00:00:00 | |
| OM5KV | 2026-09-05 06:24:48 | 44.68606 | 20.89484 | 72° | 15km/h | 23524m | 6.1m/s | -51.0°C | 0.5% | 0hPa | 5.7V | 00:00:00 | 00:00:00 | 00:00:00 | |
| OM5KV | 2026-09-05 06:24:42 | 44.68604 | 20.89495 | 146° | 5km/h | 23484m | 5.5m/s | -50.8°C | 0.4% | 0hPa | 5.7V | 00:00:00 | 00:00:00 | 00:00:00 | |
| OM5KV | 2026-09-05 06:24:36 | 44.68595 | 20.89470 | 28° | 20km/h | 23446m | 4.4m/s | -50.8°C | 0.3% | 0hPa | 5.7V | 00:00:00 | 00:00:00 | 00:00:00 | |
| OM5KV | 2026-09-05 06:24:25 | 44.68562 | 20.89452 | 13° | 27km/h | 23372m | 7.2m/s | -51.1°C | 0.3% | 0hPa | 5.7V | 00:00:00 | 00:00:00 | 00:00:00 | |
| OM5KV | 2026-09-05 06:24:23 | 44.68551 | 20.89455 | 326° | 18km/h | 23362m | 6.0m/s | -51.1°C | 0.3% | 0hPa | 5.7V | 00:00:00 | 00:00:00 | 00:00:00 | |
| OM5KV | 2026-09-05 06:24:20 | 44.68550 | 20.89462 | 180° | 5km/h | 23343m | 4.1m/s | -51.4°C | 0.3% | 0hPa | 5.7V | 00:00:00 | 00:00:00 | 00:00:00 | |
| OM5KV | 2026-09-05 06:24:16 | 44.68537 | 20.89462 | 360° | 29km/h | 23316m | 7.4m/s | -51.7°C | 0.3% | 0hPa | 5.7V | 00:00:00 | 00:00:00 | 00:00:00 | |
| OM5KV | 2026-09-05 06:24:08 | 44.68510 | 20.89473 | 168° | 11km/h | 23268m | 4.5m/s | -52.1°C | 0.4% | 0hPa | 5.7V | 00:00:00 | 00:00:00 | 00:00:00 | |
| OM5KV | 2026-09-05 06:24:01 | 44.68481 | 20.89486 | 304° | 15km/h | 23225m | 5.7m/s | -52.2°C | 0.4% | 0hPa | 5.7V | 00:00:00 | 00:00:00 | 00:00:00 | |
| OM5KV | 2026-09-05 06:23:54 | 44.68498 | 20.89480 | 52° | 13km/h | 23180m | 6.7m/s | -52.2°C | 0.4% | 0hPa | 5.7V | 00:00:00 | 00:00:00 | 00:00:00 | |
| OM5KV | 2026-09-05 06:23:51 | 44.68485 | 20.89486 | 326° | 26km/h | 23161m | 6.2m/s | -52.4°C | 0.5% | 0hPa | 5.7V | 00:00:00 | 00:00:00 | 00:00:00 | |
| GYPAP8-17 | 2026-09-05 06:23:39 | 44.68504 | 20.89515 | 308° | 11km/h | 23086m | 2.6m/s | -52.5°C | 0.6% | 0hPa | 5.7V | 00:00:00 | 00:00:00 | 00:00:00 | |
| OM5KV | 2026-09-05 06:23:32 | 44.68529 | 20.89507 | 184° | 11km/h | 23042m | 5.1m/s | -52.5°C | 0.5% | 0hPa | 5.7V | 00:00:00 | 00:00:00 | 00:00:00 | |
| LZ4TU-5 | 2026-09-05 06:23:29 | 44.68535 | 20.89516 | 252° | 13km/h | 23022m | 5.5m/s | -52.5°C | 0.5% | 0hPa | 5.7V | 00:00:00 | 00:00:00 | 00:00:00 | |
| LZ4TU-5 | 2026-09-05 06:23:25 | 44.68540 | 20.89519 | 147° | 20km/h | 22994m | 9.1m/s | -52.4°C | 0.5% | 0hPa | 5.7V | 00:00:00 | 00:00:00 | 00:00:00 | |
| GYPAP8-17 | 2026-09-05 06:23:18 | 44.68579 | 20.89502 | 217° | 13km/h | 22951m | 4.8m/s | -52.3°C | 0.4% | 0hPa | 5.7V | 00:00:00 | 00:00:00 | 00:00:00 | |
| OM5KV | 2026-09-05 06:23:15 | 44.68580 | 20.89500 | 84° | 16km/h | 22933m | 4.8m/s | -52.3°C | 0.4% | 0hPa | 5.7V | 00:00:00 | 00:00:00 | 00:00:00 | |
| OM5KV | 2026-09-05 06:23:08 | 44.68614 | 20.89468 | 175° | 13km/h | 22890m | 5.9m/s | -52.6°C | 0.5% | 0hPa | 5.7V | 00:00:00 | 00:00:00 | 00:00:00 | |
| OM5KV | 2026-09-05 06:23:07 | 44.68616 | 20.89467 | 145° | 9km/h | 22883m | 7.0m/s | -52.5°C | 0.6% | 0hPa | 5.7V | 00:00:00 | 00:00:00 | 00:00:00 | |
| OM5KV | 2026-09-05 06:23:00 | 44.68616 | 20.89424 | 137° | 26km/h | 22839m | 6.6m/s | -52.5°C | 0.4% | 0hPa | 5.7V | 00:00:00 | 00:00:00 | 00:00:00 | |
| GYPAP8-17 | 2026-09-05 06:22:54 | 44.68628 | 20.89407 | 68° | 20km/h | 22802m | 6.0m/s | -52.5°C | 0.4% | 0hPa | 5.7V | 00:00:00 | 00:00:00 | 00:00:00 | |
| OM5KV | 2026-09-05 06:22:42 | 44.68632 | 20.89369 | 59° | 15km/h | 22729m | 7.0m/s | -52.7°C | 0.5% | 0hPa | 5.7V | 00:00:00 | 00:00:00 | 00:00:00 | |
| OM5KV | 2026-09-05 06:22:39 | 44.68628 | 20.89345 | 80° | 26km/h | 22710m | 5.9m/s | -52.7°C | 0.5% | 0hPa | 5.7V | 00:00:00 | 00:00:00 | 00:00:00 | |
| OM5KV | 2026-09-05 06:22:36 | 44.68625 | 20.89323 | 76° | 11km/h | 22693m | 4.4m/s | -52.7°C | 0.5% | 0hPa | 5.7V | 00:00:00 | 00:00:00 | 00:00:00 | |
| OM5KV | 2026-09-05 06:22:33 | 44.68618 | 20.89322 | 342° | 16km/h | 22672m | 4.8m/s | -52.8°C | 0.6% | 0hPa | 5.7V | 00:00:00 | 00:00:00 | 00:00:00 | |
| OM5KV | 2026-09-05 06:22:32 | 44.68614 | 20.89324 | 350° | 15km/h | 22666m | 5.7m/s | -52.9°C | 0.6% | 0hPa | 5.7V | 00:00:00 | 00:00:00 | 00:00:00 | |
| OM5KV | 2026-09-05 06:22:31 | 44.68611 | 20.89324 | 10° | 9km/h | 22659m | 7.0m/s | -52.9°C | 0.5% | 0hPa | 5.7V | 00:00:00 | 00:00:00 | 00:00:00 | |
| OM5KV | 2026-09-05 06:22:27 | 44.68602 | 20.89306 | 62° | 20km/h | 22634m | 5.2m/s | -52.9°C | 0.5% | 0hPa | 5.7V | 00:00:00 | 00:00:00 | 00:00:00 | |
| OM5KV | 2026-09-05 06:22:22 | 44.68594 | 20.89287 | 15° | 9km/h | 22603m | 6.4m/s | -53.2°C | 0.5% | 0hPa | 5.7V | 00:00:00 | 00:00:00 | 00:00:00 | |
| OM5KV | 2026-09-05 06:22:21 | 44.68591 | 20.89286 | 6° | 18km/h | 22597m | 5.9m/s | -53.3°C | 0.6% | 0hPa | 5.7V | 00:00:00 | 00:00:00 | 00:00:00 | |
| OM5KV | 2026-09-05 06:22:19 | 44.68580 | 20.89282 | 29° | 24km/h | 22584m | 5.8m/s | -53.3°C | 0.6% | 0hPa | 5.7V | 00:00:00 | 00:00:00 | 00:00:00 | |
| OM5KV | 2026-09-05 06:22:16 | 44.68566 | 20.89269 | 42° | 22km/h | 22565m | 5.0m/s | -53.3°C | 0.5% | 0hPa | 5.7V | 00:00:00 | 00:00:00 | 00:00:00 | |
| OM5KV | 2026-09-05 06:22:10 | 44.68554 | 20.89253 | 347° | 18km/h | 22525m | 6.1m/s | -53.5°C | 0.6% | 0hPa | 5.7V | 00:00:00 | 00:00:00 | 00:00:00 | |
| OM5KV | 2026-09-05 06:22:09 | 44.68550 | 20.89255 | 349° | 18km/h | 22516m | 8.9m/s | -53.4°C | 0.6% | 0hPa | 5.7V | 00:00:00 | 00:00:00 | 00:00:00 | |
| OM5KV | 2026-09-05 06:22:08 | 44.68544 | 20.89256 | 358° | 20km/h | 22511m | 4.6m/s | -53.5°C | 0.7% | 0hPa | 5.7V | 00:00:00 | 00:00:00 | 00:00:00 | |
| LZ4TU-5 | 2026-09-05 06:22:04 | 44.68523 | 20.89250 | 33° | 16km/h | 22486m | 7.1m/s | -53.7°C | 0.7% | 0hPa | 5.7V | 00:00:00 | 00:00:00 | 00:00:00 | |
| OM5KV | 2026-09-05 06:22:03 | 44.68520 | 20.89247 | 59° | 9km/h | 22479m | 7.2m/s | -53.6°C | 0.7% | 0hPa | 5.7V | 00:00:00 | 00:00:00 | 00:00:00 | |
| LZ4TU-5 | 2026-09-05 06:21:59 | 44.68515 | 20.89247 | 323° | 18km/h | 22454m | 5.0m/s | -53.7°C | 0.7% | 0hPa | 5.7V | 00:00:00 | 00:00:00 | 00:00:00 | |
| OM5KV | 2026-09-05 06:21:57 | 44.68506 | 20.89256 | 325° | 22km/h | 22442m | 6.8m/s | -53.7°C | 0.7% | 0hPa | 5.7V | 00:00:00 | 00:00:00 | 00:00:00 | |
| OM5KV | 2026-09-05 06:21:52 | 44.68487 | 20.89267 | 347° | 16km/h | 22410m | 6.7m/s | -53.6°C | 0.6% | 0hPa | 5.7V | 00:00:00 | 00:00:00 | 00:00:00 | |
| OM5KV | 2026-09-05 06:21:51 | 44.68483 | 20.89268 | 346° | 15km/h | 22404m | 5.7m/s | -53.6°C | 0.6% | 0hPa | 5.7V | 00:00:00 | 00:00:00 | 00:00:00 | |
| OM5KV | 2026-09-05 06:21:45 | 44.68459 | 20.89292 | 348° | 15km/h | 22367m | 7.3m/s | -53.4°C | 0.6% | 0hPa | 5.7V | 00:00:00 | 00:00:00 | 00:00:00 | |
| OM5KV | 2026-09-05 06:21:40 | 44.68449 | 20.89299 | 285° | 7km/h | 22334m | 8.0m/s | -53.3°C | 0.6% | 0hPa | 5.7V | 00:00:00 | 00:00:00 | 00:00:00 | |
| OM5KV | 2026-09-05 06:21:35 | 44.68444 | 20.89322 | 305° | 15km/h | 22302m | 6.9m/s | -53.2°C | 0.5% | 0hPa | 5.7V | 00:00:00 | 00:00:00 | 00:00:00 | |
| OM5KV | 2026-09-05 06:21:34 | 44.68442 | 20.89325 | 337° | 13km/h | 22296m | 6.6m/s | -53.2°C | 0.6% | 0hPa | 5.7V | 00:00:00 | 00:00:00 | 00:00:00 | |
| OM5KV | 2026-09-05 06:21:28 | 44.68433 | 20.89341 | 243° | 11km/h | 22259m | 7.2m/s | -53.4°C | 0.6% | 0hPa | 5.7V | 00:00:00 | 00:00:00 | 00:00:00 | |
| OM5KV | 2026-09-05 06:21:22 | 44.68444 | 20.89358 | 229° | 11km/h | 22223m | 7.0m/s | -53.9°C | 0.7% | 0hPa | 5.7V | 00:00:00 | 00:00:00 | 00:00:00 | |
| OM5KV | 2026-09-05 06:21:16 | 44.68463 | 20.89367 | 226° | 15km/h | 22186m | 5.7m/s | -53.9°C | 0.7% | 0hPa | 5.7V | 00:00:00 | 00:00:00 | 00:00:00 | |
| OM5KV | 2026-09-05 06:21:11 | 44.68473 | 20.89368 | 145° | 4km/h | 22156m | 5.4m/s | -53.8°C | 0.6% | 0hPa | 5.7V | 00:00:00 | 00:00:00 | 00:00:00 | |
| OM5KV | 2026-09-05 06:21:10 | 44.68474 | 20.89367 | 113° | 5km/h | 22150m | 6.3m/s | -53.7°C | 0.6% | 0hPa | 5.7V | 00:00:00 | 00:00:00 | 00:00:00 | |
| GYPAP8-17 | 2026-09-05 06:21:06 | 44.68474 | 20.89362 | 286° | 5km/h | 22124m | 6.2m/s | -53.6°C | 0.6% | 0hPa | 5.7V | 00:00:00 | 00:00:00 | 00:00:00 | |
| OM5KV | 2026-09-05 06:21:05 | 44.68473 | 20.89364 | 283° | 9km/h | 22119m | 5.1m/s | -53.6°C | 0.6% | 0hPa | 5.7V | 00:00:00 | 00:00:00 | 00:00:00 | |
| OM5KV | 2026-09-05 06:20:55 | 44.68473 | 20.89359 | 18° | 7km/h | 22056m | 7.4m/s | -53.5°C | 0.6% | 0hPa | 5.7V | 00:00:00 | 00:00:00 | 00:00:00 | |
| OM5KV | 2026-09-05 06:20:54 | 44.68471 | 20.89359 | 329° | 7km/h | 22051m | 4.5m/s | -53.6°C | 0.6% | 0hPa | 5.7V | 00:00:00 | 00:00:00 | 00:00:00 | |
| OM5KV | 2026-09-05 06:20:49 | 44.68465 | 20.89359 | 0° | 0km/h | 22022m | 6.2m/s | -53.9°C | 0.6% | 0hPa | 5.7V | 00:00:00 | 00:00:00 | 00:00:00 | |
| OM5KV | 2026-09-05 06:20:43 | 44.68462 | 20.89349 | 9° | 13km/h | 21987m | 6.1m/s | -54.0°C | 0.6% | 0hPa | 5.7V | 00:00:00 | 00:00:00 | 00:00:00 | |
| OM5KV | 2026-09-05 06:20:40 | 44.68451 | 20.89342 | 46° | 18km/h | 21969m | 5.2m/s | -54.1°C | 0.6% | 0hPa | 5.7V | 00:00:00 | 00:00:00 | 00:00:00 | |
| OM5KV | 2026-09-05 06:20:39 | 44.68448 | 20.89338 | 52° | 15km/h | 21963m | 6.2m/s | -54.1°C | 0.6% | 0hPa | 5.7V | 00:00:00 | 00:00:00 | 00:00:00 | |
| OM5KV | 2026-09-05 06:20:38 | 44.68446 | 20.89335 | 59° | 9km/h | 21957m | 6.1m/s | -54.1°C | 0.6% | 0hPa | 5.7V | 00:00:00 | 00:00:00 | 00:00:00 | |
| LZ4TU-5 | 2026-09-05 06:20:34 | 44.68449 | 20.89318 | 122° | 15km/h | 21933m | 5.7m/s | -54.1°C | 0% | 0hPa | 5.7V | 00:00:00 | 00:00:00 | 00:00:00 | |
| OM5KV | 2026-09-05 06:20:31 | 44.68453 | 20.89310 | 98° | 4km/h | 21916m | 4.8m/s | -54.2°C | 0.6% | 0hPa | 5.7V | 00:00:00 | 00:00:00 | 00:00:00 | |
| OM5KV | 2026-09-05 06:20:29 | 44.68452 | 20.89305 | 73° | 15km/h | 21903m | 5.5m/s | -54.2°C | 0.7% | 0hPa | 5.7V | 00:00:00 | 00:00:00 | 00:00:00 | |
| OM5KV | 2026-09-05 06:20:26 | 44.68449 | 20.89290 | 77° | 7km/h | 21886m | 6.1m/s | -54.1°C | 0.7% | 0hPa | 5.7V | 00:00:00 | 00:00:00 | 00:00:00 | |
| GYPAP8-17 | 2026-09-05 06:20:18 | 44.68458 | 20.89275 | 77° | 18km/h | 21837m | 7.4m/s | -54.0°C | 0.6% | 0hPa | 5.7V | 00:00:00 | 00:00:00 | 00:00:00 | |
| OM5KV | 2026-09-05 06:20:17 | 44.68457 | 20.89268 | 79° | 18km/h | 21833m | 4.1m/s | -54.0°C | 0.5% | 0hPa | 5.7V | 00:00:00 | 00:00:00 | 00:00:00 | |
| OM5KV | 2026-09-05 06:20:12 | 44.68456 | 20.89256 | 144° | 11km/h | 21802m | 6.9m/s | -54.2°C | 0.6% | 0hPa | 5.7V | 00:00:00 | 00:00:00 | 00:00:00 | |
| OM5KV | 2026-09-05 06:20:11 | 44.68458 | 20.89253 | 130° | 15km/h | 21797m | 4.4m/s | -54.3°C | 0.6% | 0hPa | 5.7V | 00:00:00 | 00:00:00 | 00:00:00 | |
| OM5KV | 2026-09-05 06:19:58 | 44.68450 | 20.89190 | 77° | 20km/h | 21719m | 7.8m/s | -54.1°C | 0.6% | 0hPa | 5.7V | 00:00:00 | 00:00:00 | 00:00:00 | |
| OM5KV | 2026-09-05 06:19:51 | 44.68434 | 20.89153 | 31° | 15km/h | 21680m | 4.8m/s | -54.4°C | 0.6% | 0hPa | 5.7V | 00:00:00 | 00:00:00 | 00:00:00 | |
| OM5KV | 2026-09-05 06:19:49 | 44.68428 | 20.89145 | 60° | 20km/h | 21667m | 5.5m/s | -54.3°C | 0.6% | 0hPa | 5.7V | 00:00:00 | 00:00:00 | 00:00:00 | |
| OM5KV | 2026-09-05 06:19:45 | 44.68416 | 20.89122 | 55° | 15km/h | 21642m | 7.3m/s | -54.3°C | 0.5% | 0hPa | 5.7V | 00:00:00 | 00:00:00 | 00:00:00 | |
| OM5KV | 2026-09-05 06:19:44 | 44.68414 | 20.89119 | 55° | 7km/h | 21636m | 5.6m/s | -54.3°C | 0.5% | 0hPa | 5.7V | 00:00:00 | 00:00:00 | 00:00:00 | |
| GYPAP8-17 | 2026-09-05 06:19:33 | 44.68384 | 20.89086 | 13° | 13km/h | 21571m | 6.6m/s | -54.4°C | 0.5% | 0hPa | 5.7V | 00:00:00 | 00:00:00 | 00:00:00 | |
| LZ4TU-5 | 2026-09-05 06:19:12 | 44.68334 | 20.89004 | 48° | 24km/h | 21447m | 6.3m/s | -54.7°C | 0.5% | 0hPa | 5.7V | 00:00:00 | 00:00:00 | 00:00:00 | |
| LZ4TU-5 | 2026-09-05 06:19:07 | 44.68326 | 20.88994 | 279° | 4km/h | 21416m | 7.3m/s | -54.8°C | 0.5% | 0hPa | 5.7V | 00:00:00 | 00:00:00 | 00:00:00 | |
| GYPAP8-17 | 2026-09-05 06:18:50 | 44.68307 | 20.88939 | 18° | 15km/h | 21310m | 5.9m/s | -55.2°C | 0.7% | 0hPa | 5.7V | 00:00:00 | 00:00:00 | 00:00:00 | |
| OE3JTB-15 | 2026-09-05 06:18:15 | 44.68187 | 20.88808 | 51° | 16km/h | 21091m | 5.9m/s | -54.5°C | 0% | 0hPa | 5.7V | 00:00:00 | 00:00:00 | 00:00:00 | |
| GYPAP8-17 | 2026-09-05 06:18:06 | 44.68157 | 20.88764 | 38° | 16km/h | 21037m | 6.3m/s | -55.3°C | 0.7% | 0hPa | 5.7V | 00:00:00 | 00:00:00 | 00:00:00 | |
| LZ4TU-5 | 2026-09-05 06:17:46 | 44.68082 | 20.88723 | 350° | 11km/h | 20911m | 6.7m/s | -55.3°C | 0.8% | 0hPa | 5.7V | 00:00:00 | 00:00:00 | 00:00:00 | |
| OE3JTB-15 | 2026-09-05 06:17:45 | 44.68080 | 20.88723 | 9° | 16km/h | 20904m | 6.6m/s | -54.5°C | 0% | 0hPa | 5.7V | 00:00:00 | 00:00:00 | 00:00:00 | |
| LZ4TU-5 | 2026-09-05 06:17:42 | 44.68071 | 20.88719 | 14° | 18km/h | 20886m | 6.2m/s | -55.3°C | 0.7% | 0hPa | 5.7V | 00:00:00 | 00:00:00 | 00:00:00 | |
| OE3JTB-15 | 2026-09-05 06:17:14 | 44.67969 | 20.88645 | 357° | 13km/h | 20713m | 7.0m/s | -54.5°C | 0% | 0hPa | 5.7V | 00:00:00 | 00:00:00 | 00:00:00 | |
| GYPAP8-17 | 2026-09-05 06:17:08 | 44.67953 | 20.88641 | 356° | 20km/h | 20676m | 5.8m/s | -55.1°C | 0.8% | 0hPa | 5.7V | 00:00:00 | 00:00:00 | 00:00:00 | |
| OE3JTB-15 | 2026-09-05 06:16:44 | 44.67912 | 20.88697 | 317° | 18km/h | 20530m | 5.8m/s | -53.4°C | 0% | 0hPa | 5.7V | 00:00:00 | 00:00:00 | 00:00:00 | |
| LZ4TU-5 | 2026-09-05 06:16:24 | 44.67926 | 20.88807 | 208° | 13km/h | 20414m | 6.2m/s | -54.6°C | 0.4% | 0hPa | 5.7V | 00:00:00 | 00:00:00 | 00:00:00 | |
| LZ4TU-5 | 2026-09-05 06:16:19 | 44.67930 | 20.88815 | 248° | 5km/h | 20384m | 8.0m/s | -54.6°C | 0% | 0hPa | 5.7V | 00:00:00 | 00:00:00 | 00:00:00 | |
| GYPAP8-17 | 2026-09-05 06:16:15 | 44.67936 | 20.88825 | 246° | 16km/h | 20362m | 3.7m/s | -54.9°C | 0.5% | 0hPa | 5.7V | 00:00:00 | 00:00:00 | 00:00:00 | |
| 9A1FER-3 | 2026-09-05 06:15:29 | 44.67951 | 20.88730 | 9° | 16km/h | 20093m | 5.2m/s | -55.2°C | 0% | 0hPa | 5.7V | 00:00:00 | 00:00:00 | 00:00:00 | |
| 9A1FER-3 | 2026-09-05 06:15:13 | 44.67899 | 20.88729 | 15° | 16km/h | 19999m | 5.8m/s | -54.9°C | 0% | 0hPa | 5.7V | 00:00:00 | 00:00:00 | 00:00:00 | |
| LZ4TU-5 | 2026-09-05 06:14:57 | 44.67866 | 20.88668 | 66° | 20km/h | 19912m | 4.5m/s | -56.0°C | 0.6% | 0hPa | 5.7V | 00:00:00 | 00:00:00 | 00:00:00 | |
| 9A1FER-3 | 2026-09-05 06:14:56 | 44.67863 | 20.88662 | 68° | 18km/h | 19906m | 6.5m/s | -55.2°C | 0% | 0hPa | 5.7V | 00:00:00 | 00:00:00 | 00:00:00 | |
| LZ4TU-5 | 2026-09-05 06:14:53 | 44.67858 | 20.88642 | 59° | 13km/h | 19889m | 6.2m/s | -56.1°C | 0.6% | 0hPa | 5.7V | 00:00:00 | 00:00:00 | 00:00:00 | |
| 9A1FER-3 | 2026-09-05 06:14:41 | 44.67833 | 20.88586 | 108° | 11km/h | 19820m | 6.0m/s | -55.7°C | 0% | 0hPa | 5.7V | 00:00:00 | 00:00:00 | 00:00:00 | |
| GYPAP8-17 | 2026-09-05 06:14:36 | 44.67829 | 20.88569 | 64° | 13km/h | 19793m | 5.7m/s | -56.8°C | 0.7% | 0hPa | 5.7V | 00:00:00 | 00:00:00 | 00:00:00 | |
| 9A1FER-3 | 2026-09-05 06:14:24 | 44.67802 | 20.88514 | 43° | 15km/h | 19725m | 5.2m/s | -56.5°C | 0% | 0hPa | 5.7V | 00:00:00 | 00:00:00 | 00:00:00 | |
| 9A1FER-3 | 2026-09-05 06:14:08 | 44.67770 | 20.88440 | 70° | 24km/h | 19633m | 5.9m/s | -56.5°C | 0% | 0hPa | 5.7V | 00:00:00 | 00:00:00 | 00:00:00 | |
| 9A1FER-3 | 2026-09-05 06:13:53 | 44.67738 | 20.88332 | 40° | 13km/h | 19546m | 5.9m/s | -56.7°C | 0% | 0hPa | 5.7V | 00:00:00 | 00:00:00 | 00:00:00 | |
| 9A1FER-3 | 2026-09-05 06:13:36 | 44.67705 | 20.88277 | 122° | 9km/h | 19443m | 7.2m/s | -56.6°C | 0% | 0hPa | 5.7V | 00:00:00 | 00:00:00 | 00:00:00 | |
| LZ4TU-5 | 2026-09-05 06:13:35 | 44.67707 | 20.88275 | 148° | 11km/h | 19438m | 5.2m/s | -57.5°C | 0.7% | 0hPa | 5.7V | 00:00:00 | 00:00:00 | 00:00:00 | |
| LZ4TU-5 | 2026-09-05 06:13:30 | 44.67708 | 20.88263 | 35° | 16km/h | 19407m | 6.1m/s | -57.4°C | 0.7% | 0hPa | 5.7V | 00:00:00 | 00:00:00 | 00:00:00 | |
| 9A1FER-3 | 2026-09-05 06:13:21 | 44.67702 | 20.88259 | 77° | 9km/h | 19355m | 5.7m/s | -56.7°C | 0% | 0hPa | 5.7V | 00:00:00 | 00:00:00 | 00:00:00 | |
| 9A1FER-3 | 2026-09-05 06:13:04 | 44.67664 | 20.88250 | 61° | 7km/h | 19253m | 6.5m/s | -56.5°C | 0% | 0hPa | 5.7V | 00:00:00 | 00:00:00 | 00:00:00 | |
| GYPAP8-17 | 2026-09-05 06:12:58 | 44.67672 | 20.88253 | 104° | 5km/h | 19215m | 7.6m/s | -57.5°C | 0.7% | 0hPa | 0V | 00:00:00 | 00:00:00 | 00:00:00 | |
| GYPAP8-17 | 2026-09-05 06:12:20 | 44.67829 | 20.88075 | 116° | 26km/h | 18981m | 7.3m/s | -57.5°C | 1.0% | 0hPa | 0V | 00:00:00 | 00:00:00 | 00:00:00 | |
| LZ4TU-5 | 2026-09-05 06:12:11 | 44.67872 | 20.88010 | 114° | 26km/h | 18924m | 6.9m/s | -57.0°C | 0.8% | 0hPa | 0V | 00:00:00 | 00:00:00 | 00:00:00 | |
| LZ4TU-5 | 2026-09-05 06:12:06 | 44.67884 | 20.87975 | 124° | 24km/h | 18895m | 6.6m/s | -57.2°C | 0.9% | 0hPa | 0V | 00:00:00 | 00:00:00 | 00:00:00 | |
| OM5KV | 2026-09-05 06:11:01 | 44.67869 | 20.87375 | 49° | 27km/h | 18508m | 6.7m/s | -57.7°C | 1.1% | 0hPa | 0V | 00:00:00 | 00:00:00 | 00:00:00 | |
| LZ4TU-5 | 2026-09-05 06:10:47 | 44.67839 | 20.87278 | 75° | 24km/h | 18431m | 5.3m/s | -57.8°C | 1.2% | 0hPa | 0V | 00:00:00 | 00:00:00 | 00:00:00 | |
| LZ4TU-5 | 2026-09-05 06:10:42 | 44.67839 | 20.87231 | 93° | 29km/h | 18403m | 4.8m/s | -57.8°C | 1.2% | 0hPa | 0V | 00:00:00 | 00:00:00 | 00:00:00 | |
| LZ4TU-5 | 2026-09-05 06:09:23 | 44.67843 | 20.86472 | 113° | 40km/h | 17947m | 5.1m/s | -58.9°C | 1.2% | 0hPa | 0V | 00:00:00 | 00:00:00 | 00:00:00 | |
| LZ4TU-5 | 2026-09-05 06:09:18 | 44.67856 | 20.86411 | 103° | 33km/h | 17919m | 5.5m/s | -59.4°C | 1.4% | 0hPa | 0V | 00:00:00 | 00:00:00 | 00:00:00 | |
| OM5KV | 2026-09-05 06:08:12 | 44.67944 | 20.85546 | 100° | 37km/h | 17551m | 5.7m/s | -59.5°C | 1.7% | 0hPa | 0V | 00:00:00 | 00:00:00 | 00:00:00 | |
| LZ4TU-5 | 2026-09-05 06:07:49 | 44.67932 | 20.85162 | 78° | 35km/h | 17425m | 5.7m/s | -59.8°C | 1.9% | 0hPa | 0V | 00:00:00 | 00:00:00 | 00:00:00 | |
| LZ4TU-5 | 2026-09-05 06:07:44 | 44.67919 | 20.85084 | 83° | 51km/h | 17399m | 3.9m/s | -59.6°C | 1.9% | 0hPa | 0V | 00:00:00 | 00:00:00 | 00:00:00 | |
| LZ4TU-5 | 2026-09-05 06:06:25 | 44.67926 | 20.84033 | 88° | 42km/h | 16982m | 5.0m/s | -59.8°C | 2.6% | 0hPa | 0V | 00:00:00 | 00:00:00 | 00:00:00 | |
| LZ4TU-5 | 2026-09-05 06:06:20 | 44.67921 | 20.83959 | 71° | 37km/h | 16955m | 4.9m/s | -59.7°C | 2.6% | 0hPa | 0V | 00:00:00 | 00:00:00 | 00:00:00 | |
| LZ4TU-5 | 2026-09-05 06:05:01 | 44.67648 | 20.82856 | 85° | 51km/h | 16542m | 4.1m/s | -60.2°C | 3.3% | 0hPa | 0V | 00:00:00 | 00:00:00 | 00:00:00 | |
| LZ4TU-5 | 2026-09-05 06:04:57 | 44.67646 | 20.82802 | 87° | 29km/h | 16522m | 5.7m/s | -60.3°C | 3.3% | 0hPa | 0V | 00:00:00 | 00:00:00 | 00:00:00 | |
| LZ4TU-5 | 2026-09-05 06:04:52 | 44.67641 | 20.82738 | 89° | 40km/h | 16496m | 5.3m/s | -60.4°C | 3.2% | 0hPa | 0V | 00:00:00 | 00:00:00 | 00:00:00 | |
| LZ4TU-5 | 2026-09-05 06:03:33 | 44.67743 | 20.81789 | 95° | 38km/h | 16083m | 5.4m/s | -61.0°C | 4.1% | 0hPa | 0V | 00:00:00 | 00:00:00 | 00:00:00 | |
| LZ4TU-5 | 2026-09-05 06:02:07 | 44.67940 | 20.80561 | 99° | 40km/h | 15627m | 5.4m/s | -60.5°C | 5.8% | 0hPa | 0V | 00:00:00 | 00:00:00 | 00:00:00 | |
| LZ4TU-5 | 2026-09-05 06:02:03 | 44.67952 | 20.80506 | 117° | 37km/h | 15605m | 5.2m/s | -60.7°C | 6.0% | 0hPa | 0V | 00:00:00 | 00:00:00 | 00:00:00 | |
| LZ4TU-5 | 2026-09-05 06:00:43 | 44.68223 | 20.79376 | 102° | 40km/h | 15172m | 5.1m/s | -61.6°C | 8.3% | 0hPa | 0V | 00:00:00 | 00:00:00 | 00:00:00 | |
| LZ4TU-5 | 2026-09-05 06:00:38 | 44.68238 | 20.79307 | 103° | 42km/h | 15147m | 5.6m/s | -62.1°C | 8.6% | 0hPa | 0V | 00:00:00 | 00:00:00 | 00:00:00 | |
| LZ4TU-5 | 2026-09-05 05:59:19 | 44.68304 | 20.77946 | 89° | 62km/h | 14757m | 5.9m/s | -62.1°C | 12.9% | 0hPa | 0V | 00:00:00 | 00:00:00 | 00:00:00 | |
| LZ4TU-5 | 2026-09-05 05:59:14 | 44.68303 | 20.77838 | 84° | 53km/h | 14731m | 6.7m/s | -62.0°C | 13.5% | 0hPa | 0V | 00:00:00 | 00:00:00 | 00:00:00 | |
| LZ4TU-5 | 2026-09-05 05:57:56 | 44.68331 | 20.76513 | 74° | 57km/h | 14332m | 6.2m/s | -62.8°C | 22.6% | 0hPa | 0V | 00:00:00 | 00:00:00 | 00:00:00 | |
| LZ4TU-5 | 2026-09-05 05:57:51 | 44.68316 | 20.76421 | 85° | 49km/h | 14305m | 6.5m/s | -63.2°C | 23.4% | 0hPa | 0V | 00:00:00 | 00:00:00 | 00:00:00 | |
| LZ4TU-5 | 2026-09-05 05:56:30 | 44.68396 | 20.75144 | 115° | 46km/h | 13881m | 5.7m/s | -65.7°C | 30.7% | 0hPa | 0V | 00:00:00 | 00:00:00 | 00:00:00 | |
| LZ4TU-5 | 2026-09-05 05:56:26 | 44.68417 | 20.75075 | 116° | 62km/h | 13860m | 4.4m/s | -65.8°C | 30.6% | 0hPa | 0V | 00:00:00 | 00:00:00 | 00:00:00 | |
| LZ4TU-5 | 2026-09-05 05:55:06 | 44.68835 | 20.73594 | 111° | 53km/h | 13458m | 4.8m/s | -65.0°C | 31.4% | 0hPa | 0V | 00:00:00 | 00:00:00 | 00:00:00 | |
| LZ4TU-5 | 2026-09-05 05:55:01 | 44.68852 | 20.73505 | 112° | 57km/h | 13433m | 4.8m/s | -64.9°C | 31.3% | 0hPa | 0V | 00:00:00 | 00:00:00 | 00:00:00 | |
| LZ4TU-5 | 2026-09-05 05:53:41 | 44.69306 | 20.72043 | 108° | 66km/h | 13026m | 4.6m/s | -62.2°C | 28.9% | 0hPa | 0V | 00:00:00 | 00:00:00 | 00:00:00 | |
| LZ4TU-5 | 2026-09-05 05:53:37 | 44.69324 | 20.71965 | 115° | 49km/h | 13006m | 4.7m/s | -62.1°C | 28.6% | 0hPa | 0V | 00:00:00 | 00:00:00 | 00:00:00 | |
| LZ4TU-5 | 2026-09-05 05:52:19 | 44.69725 | 20.70475 | 100° | 64km/h | 12593m | 5.6m/s | -58.5°C | 25.1% | 0hPa | 0V | 00:00:00 | 00:00:00 | 00:00:00 | |
| LZ4TU-5 | 2026-09-05 05:52:14 | 44.69744 | 20.70370 | 108° | 53km/h | 12567m | 6.3m/s | -58.2°C | 25.1% | 0hPa | 0V | 00:00:00 | 00:00:00 | 00:00:00 | |
| LZ4TU-5 | 2026-09-05 05:50:53 | 44.69879 | 20.68849 | 96° | 46km/h | 12145m | 6.5m/s | -55.0°C | 22.7% | 0hPa | 0V | 00:00:00 | 00:00:00 | 00:00:00 | |
| LZ4TU-5 | 2026-09-05 05:50:48 | 44.69888 | 20.68753 | 104° | 55km/h | 12115m | 5.2m/s | -54.8°C | 22.7% | 0hPa | 0V | 00:00:00 | 00:00:00 | 00:00:00 | |
| LZ4TU-5 | 2026-09-05 05:49:27 | 44.70028 | 20.67140 | 105° | 57km/h | 11647m | 5.0m/s | -51.2°C | 20.3% | 0hPa | 0V | 00:00:00 | 00:00:00 | 00:00:00 | |
| LZ4TU-5 | 2026-09-05 05:49:23 | 44.70033 | 20.67062 | 95° | 58km/h | 11623m | 3.7m/s | -51.0°C | 20.0% | 0hPa | 0V | 00:00:00 | 00:00:00 | 00:00:00 | |
| LZ4TU-5 | 2026-09-05 05:48:03 | 44.70358 | 20.65520 | 114° | 51km/h | 11182m | 7.0m/s | -47.0°C | 16.8% | 0hPa | 0V | 00:00:00 | 00:00:00 | 00:00:00 | |
| LZ4TU-5 | 2026-09-05 05:47:59 | 44.70372 | 20.65443 | 104° | 57km/h | 11155m | 6.3m/s | -46.7°C | 16.6% | 0hPa | 0V | 00:00:00 | 00:00:00 | 00:00:00 | |
| LZ4TU-5 | 2026-09-05 05:46:31 | 44.70825 | 20.63729 | 115° | 71km/h | 10708m | 6.5m/s | -43.2°C | 14.8% | 0hPa | 0V | 00:00:00 | 00:00:00 | 00:00:00 | |
| LZ4TU-5 | 2026-09-05 05:46:26 | 44.70863 | 20.63632 | 114° | 53km/h | 10680m | 5.6m/s | -42.9°C | 14.9% | 0hPa | 0V | 00:00:00 | 00:00:00 | 00:00:00 | |
| LZ4TU-5 | 2026-09-05 05:45:05 | 44.71284 | 20.62144 | 116° | 62km/h | 10251m | 4.6m/s | -39.8°C | 13.2% | 0hPa | 0V | 00:00:00 | 00:00:00 | 00:00:00 | |
| LZ4TU-5 | 2026-09-05 05:45:00 | 44.71312 | 20.62069 | 112° | 42km/h | 10227m | 4.1m/s | -39.7°C | 13.2% | 0hPa | 0V | 00:00:00 | 00:00:00 | 00:00:00 | |
| LZ4TU-5 | 2026-09-05 05:43:41 | 44.71779 | 20.60750 | 137° | 68km/h | 9838m | 6.3m/s | -36.7°C | 12.7% | 0hPa | 0V | 00:00:00 | 00:00:00 | 00:00:00 | |
| LZ4TU-5 | 2026-09-05 05:43:36 | 44.71809 | 20.60674 | 109° | 38km/h | 9803m | 6.1m/s | -36.4°C | 12.7% | 0hPa | 0V | 00:00:00 | 00:00:00 | 00:00:00 | |
| LZ4TU-5 | 2026-09-05 05:42:16 | 44.72217 | 20.59338 | 120° | 40km/h | 9366m | 5.2m/s | -33.0°C | 11.0% | 0hPa | 0V | 00:00:00 | 00:00:00 | 00:00:00 | |
| LZ4TU-5 | 2026-09-05 05:42:12 | 44.72227 | 20.59269 | 98° | 69km/h | 9349m | 3.7m/s | -32.9°C | 10.9% | 0hPa | 0V | 00:00:00 | 00:00:00 | 00:00:00 | |
| LZ4TU-5 | 2026-09-05 05:40:51 | 44.72616 | 20.57869 | 115° | 40km/h | 8911m | 6.2m/s | -29.4°C | 10.5% | 0hPa | 0V | 00:00:00 | 00:00:00 | 00:00:00 | |
| LZ4TU-5 | 2026-09-05 05:40:46 | 44.72638 | 20.57788 | 92° | 60km/h | 8872m | 6.0m/s | -29.1°C | 10.8% | 0hPa | 0V | 00:00:00 | 00:00:00 | 00:00:00 | |
| LZ4TU-5 | 2026-09-05 05:39:20 | 44.73116 | 20.56184 | 128° | 77km/h | 8404m | 4.7m/s | -26.1°C | 12.1% | 0hPa | 0V | 00:00:00 | 00:00:00 | 00:00:00 | |
| LZ4TU-5 | 2026-09-05 05:39:16 | 44.73147 | 20.56101 | 108° | 58km/h | 8383m | 6.7m/s | -26.0°C | 12.4% | 0hPa | 0V | 00:00:00 | 00:00:00 | 00:00:00 | |
| LZ4TU-5 | 2026-09-05 05:37:50 | 44.73667 | 20.54651 | 111° | 49km/h | 7913m | 5.2m/s | -22.7°C | 14.9% | 0hPa | 0V | 00:00:00 | 00:00:00 | 00:00:00 | |
| LZ4TU-5 | 2026-09-05 05:37:46 | 44.73683 | 20.54573 | 115° | 64km/h | 7895m | 3.6m/s | -22.6°C | 14.9% | 0hPa | 0V | 00:00:00 | 00:00:00 | 00:00:00 | |
| LZ4TU-5 | 2026-09-05 05:36:33 | 44.74043 | 20.53377 | 112° | 64km/h | 7497m | 4.0m/s | -19.5°C | 14.1% | 0hPa | 0V | 00:00:00 | 00:00:00 | 00:00:00 | |
| LZ4TU-5 | 2026-09-05 05:36:29 | 44.74069 | 20.53319 | 135° | 33km/h | 7478m | 5.2m/s | -19.4°C | 14.3% | 0hPa | 0V | 00:00:00 | 00:00:00 | 00:00:00 | |
| LZ4TU-5 | 2026-09-05 05:35:15 | 44.74336 | 20.52168 | 108° | 27km/h | 7072m | 3.5m/s | -16.7°C | 15.0% | 0hPa | 0V | 00:00:00 | 00:00:00 | 00:00:00 | |
| LZ4TU-5 | 2026-09-05 05:35:10 | 44.74342 | 20.52114 | 101° | 33km/h | 7043m | 7.0m/s | -16.5°C | 15.3% | 0hPa | 0V | 00:00:00 | 00:00:00 | 00:00:00 | |
| LZ4TU-5 | 2026-09-05 05:33:57 | 44.74635 | 20.51229 | 142° | 18km/h | 6662m | 6.0m/s | -14.3°C | 17.1% | 0hPa | 0V | 00:00:00 | 00:00:00 | 00:00:00 | |
| LZ4TU-5 | 2026-09-05 05:33:52 | 44.74647 | 20.51173 | 95° | 60km/h | 6631m | 4.5m/s | -14.1°C | 17.0% | 0hPa | 0V | 00:00:00 | 00:00:00 | 00:00:00 | |
| LZ4TU-5 | 2026-09-05 05:32:42 | 44.74903 | 20.50331 | 114° | 31km/h | 6254m | 6.9m/s | -12.1°C | 23.6% | 0hPa | 0V | 00:00:00 | 00:00:00 | 00:00:00 | |
| LZ4TU-5 | 2026-09-05 05:32:38 | 44.74905 | 20.50301 | 75° | 24km/h | 6236m | 4.4m/s | -12.1°C | 24.4% | 0hPa | 0V | 00:00:00 | 00:00:00 | 00:00:00 | |
| LZ4TU-5 | 2026-09-05 05:31:31 | 44.75114 | 20.49665 | 127° | 20km/h | 5860m | 5.8m/s | -10.1°C | 35.8% | 0hPa | 0V | 00:00:00 | 00:00:00 | 00:00:00 | |
| LZ4TU-5 | 2026-09-05 05:31:27 | 44.75115 | 20.49648 | 116° | 13km/h | 5841m | 5.1m/s | -10.0°C | 36.0% | 0hPa | 0V | 00:00:00 | 00:00:00 | 00:00:00 | |
| LZ4TU-5 | 2026-09-05 05:31:22 | 44.75154 | 20.49590 | 139° | 53km/h | 5809m | 6.3m/s | -9.7°C | 34.7% | 0hPa | 0V | 00:00:00 | 00:00:00 | 00:00:00 |